Chesterfield, Michigan
Current Conditions -  °F | °C
As of 1:55 PM on Saturday 25 Oct 2014 (Local Time) from KMTC Reporting Station
Haze Haze  
Wind Chill: 64°   Ceiling: Unl
Heat Index: 64°   Visibility: 5mi
Dew Point: 51°   Wind: 16mph
Humidity: 64%   Direction: 270°W
Pressure: 29.73"   Gusts: 23mph
Location:  42.6875°N, 82.8325°W
Report Text: KMTC 251755Z 27014G20KT 5SM HZ SCT026 18/11 A2973 RMK SLP075 T01770107 10178 20105 58010
Loading
Personal Weather Stations






























Interactive Weather Map
Tropical Storm Tracking
New forecast layout! Learn more

10-Day Weather Forecast

Advertisements
Track Severe Weather on mobile